sensor_id;sensor_type;location;lat;lon;timestamp;P1;durP1;ratioP1;P2;durP2;ratioP2
76725;SDS011;65651;53.154;17.916;2023-11-22T00:02:14;82.20;;;19.50;;
76725;SDS011;65651;53.154;17.916;2023-11-22T00:04:45;78.80;;;20.00;;
76725;SDS011;65651;53.154;17.916;2023-11-22T00:07:13;78.20;;;19.10;;
76725;SDS011;65651;53.154;17.916;2023-11-22T00:09:45;71.40;;;17.60;;
76725;SDS011;65651;53.154;17.916;2023-11-22T00:12:23;77.50;;;18.90;;
76725;SDS011;65651;53.154;17.916;2023-11-22T00:14:51;80.60;;;20.20;;
76725;SDS011;65651;53.154;17.916;2023-11-22T00:17:19;72.60;;;15.90;;
76725;SDS011;65651;53.154;17.916;2023-11-22T00:19:48;68.20;;;16.40;;
76725;SDS011;65651;53.154;17.916;2023-11-22T00:25:51;68.10;;;18.50;;
76725;SDS011;65651;53.154;17.916;2023-11-22T00:28:28;68.60;;;17.60;;
76725;SDS011;65651;53.154;17.916;2023-11-22T00:31:09;71.30;;;16.60;;
76725;SDS011;65651;53.154;17.916;2023-11-22T00:33:59;59.30;;;14.20;;
76725;SDS011;65651;53.154;17.916;2023-11-22T00:36:34;77.20;;;19.70;;
76725;SDS011;65651;53.154;17.916;2023-11-22T00:39:08;86.30;;;21.10;;
76725;SDS011;65651;53.154;17.916;2023-11-22T00:41:49;82.10;;;19.60;;
76725;SDS011;65651;53.154;17.916;2023-11-22T00:44:33;80.50;;;20.50;;
76725;SDS011;65651;53.154;17.916;2023-11-22T00:47:20;91.70;;;18.30;;
76725;SDS011;65651;53.154;17.916;2023-11-22T00:49:57;68.60;;;18.00;;
76725;SDS011;65651;53.154;17.916;2023-11-22T00:52:59;72.70;;;18.40;;
76725;SDS011;65651;53.154;17.916;2023-11-22T00:55:52;81.30;;;20.00;;
76725;SDS011;65651;53.154;17.916;2023-11-22T00:58:28;88.00;;;20.60;;
76725;SDS011;65651;53.154;17.916;2023-11-22T01:01:24;81.30;;;17.40;;
76725;SDS011;65651;53.154;17.916;2023-11-22T01:04:11;63.50;;;15.60;;
76725;SDS011;65651;53.154;17.916;2023-11-22T01:06:53;57.00;;;14.00;;
76725;SDS011;65651;53.154;17.916;2023-11-22T01:09:33;80.40;;;18.70;;
76725;SDS011;65651;53.154;17.916;2023-11-22T01:12:05;65.90;;;16.40;;
76725;SDS011;65651;53.154;17.916;2023-11-22T01:14:42;80.60;;;18.40;;
76725;SDS011;65651;53.154;17.916;2023-11-22T01:17:09;65.80;;;16.00;;
76725;SDS011;65651;53.154;17.916;2023-11-22T01:19:39;75.70;;;16.80;;
76725;SDS011;65651;53.154;17.916;2023-11-22T01:22:12;80.30;;;17.50;;
76725;SDS011;65651;53.154;17.916;2023-11-22T01:28:30;43.20;;;9.90;;
76725;SDS011;65651;53.154;17.916;2023-11-22T01:31:03;39.70;;;10.30;;
76725;SDS011;65651;53.154;17.916;2023-11-22T01:33:31;53.80;;;14.60;;
76725;SDS011;65651;53.154;17.916;2023-11-22T01:36:03;64.40;;;17.20;;
76725;SDS011;65651;53.154;17.916;2023-11-22T01:38:43;66.80;;;16.90;;
76725;SDS011;65651;53.154;17.916;2023-11-22T01:41:16;69.80;;;16.80;;
76725;SDS011;65651;53.154;17.916;2023-11-22T01:43:44;66.80;;;16.20;;
76725;SDS011;65651;53.154;17.916;2023-11-22T01:46:28;68.90;;;18.00;;
76725;SDS011;65651;53.154;17.916;2023-11-22T01:49:06;73.50;;;17.30;;
76725;SDS011;65651;53.154;17.916;2023-11-22T01:51:44;73.80;;;15.60;;
76725;SDS011;65651;53.154;17.916;2023-11-22T01:54:30;87.60;;;20.70;;
76725;SDS011;65651;53.154;17.916;2023-11-22T01:57:08;64.60;;;12.70;;
76725;SDS011;65651;53.154;17.916;2023-11-22T01:59:36;70.80;;;18.00;;
76725;SDS011;65651;53.154;17.916;2023-11-22T02:02:06;69.80;;;16.20;;
76725;SDS011;65651;53.154;17.916;2023-11-22T02:04:35;76.40;;;18.10;;
76725;SDS011;65651;53.154;17.916;2023-11-22T02:07:04;75.60;;;19.50;;
76725;SDS011;65651;53.154;17.916;2023-11-22T02:09:31;84.90;;;20.00;;
76725;SDS011;65651;53.154;17.916;2023-11-22T02:12:01;73.20;;;19.30;;
76725;SDS011;65651;53.154;17.916;2023-11-22T02:14:37;76.60;;;18.70;;
76725;SDS011;65651;53.154;17.916;2023-11-22T02:17:09;82.60;;;21.60;;
76725;SDS011;65651;53.154;17.916;2023-11-22T02:19:37;81.40;;;21.90;;
76725;SDS011;65651;53.154;17.916;2023-11-22T02:22:08;93.10;;;24.10;;
76725;SDS011;65651;53.154;17.916;2023-11-22T02:24:35;76.70;;;19.70;;
76725;SDS011;65651;53.154;17.916;2023-11-22T02:27:03;77.00;;;22.20;;
76725;SDS011;65651;53.154;17.916;2023-11-22T02:29:33;77.10;;;21.60;;
76725;SDS011;65651;53.154;17.916;2023-11-22T02:32:14;81.30;;;21.10;;
76725;SDS011;65651;53.154;17.916;2023-11-22T02:34:48;84.10;;;23.00;;
76725;SDS011;65651;53.154;17.916;2023-11-22T02:37:16;85.10;;;22.00;;
76725;SDS011;65651;53.154;17.916;2023-11-22T02:40:05;56.30;;;12.30;;
76725;SDS011;65651;53.154;17.916;2023-11-22T02:42:42;75.30;;;18.80;;
76725;SDS011;65651;53.154;17.916;2023-11-22T02:45:16;86.10;;;22.30;;
76725;SDS011;65651;53.154;17.916;2023-11-22T02:47:52;71.30;;;18.60;;
76725;SDS011;65651;53.154;17.916;2023-11-22T02:50:28;92.00;;;25.10;;
76725;SDS011;65651;53.154;17.916;2023-11-22T02:53:09;104.70;;;26.50;;
76725;SDS011;65651;53.154;17.916;2023-11-22T02:55:36;70.10;;;17.40;;
76725;SDS011;65651;53.154;17.916;2023-11-22T02:58:04;96.50;;;29.50;;
76725;SDS011;65651;53.154;17.916;2023-11-22T03:00:32;114.50;;;34.60;;
76725;SDS011;65651;53.154;17.916;2023-11-22T03:03:01;136.80;;;41.50;;
76725;SDS011;65651;53.154;17.916;2023-11-22T03:05:30;114.50;;;30.60;;
76725;SDS011;65651;53.154;17.916;2023-11-22T03:08:00;108.60;;;32.00;;
76725;SDS011;65651;53.154;17.916;2023-11-22T03:10:28;109.20;;;32.10;;
76725;SDS011;65651;53.154;17.916;2023-11-22T03:13:02;105.70;;;31.80;;
76725;SDS011;65651;53.154;17.916;2023-11-22T03:15:34;118.20;;;32.70;;
76725;SDS011;65651;53.154;17.916;2023-11-22T03:18:09;98.20;;;30.30;;
76725;SDS011;65651;53.154;17.916;2023-11-22T03:20:56;110.60;;;32.10;;
76725;SDS011;65651;53.154;17.916;2023-11-22T03:23:53;100.40;;;28.60;;
76725;SDS011;65651;53.154;17.916;2023-11-22T03:26:26;100.00;;;28.70;;
76725;SDS011;65651;53.154;17.916;2023-11-22T03:28:57;103.00;;;29.00;;
76725;SDS011;65651;53.154;17.916;2023-11-22T03:31:38;94.40;;;25.60;;
76725;SDS011;65651;53.154;17.916;2023-11-22T03:34:20;148.20;;;47.00;;
76725;SDS011;65651;53.154;17.916;2023-11-22T03:37:05;142.00;;;44.50;;
76725;SDS011;65651;53.154;17.916;2023-11-22T03:39:38;146.30;;;42.10;;
76725;SDS011;65651;53.154;17.916;2023-11-22T03:42:24;127.30;;;39.90;;
76725;SDS011;65651;53.154;17.916;2023-11-22T03:44:57;105.10;;;27.10;;
76725;SDS011;65651;53.154;17.916;2023-11-22T03:47:26;94.20;;;24.10;;
76725;SDS011;65651;53.154;17.916;2023-11-22T03:49:55;96.70;;;24.00;;
76725;SDS011;65651;53.154;17.916;2023-11-22T03:52:22;83.40;;;20.50;;
76725;SDS011;65651;53.154;17.916;2023-11-22T03:54:50;99.30;;;21.60;;
76725;SDS011;65651;53.154;17.916;2023-11-22T04:00:18;79.30;;;18.50;;
76725;SDS011;65651;53.154;17.916;2023-11-22T04:02:46;93.20;;;20.60;;
76725;SDS011;65651;53.154;17.916;2023-11-22T04:05:17;78.30;;;18.40;;
76725;SDS011;65651;53.154;17.916;2023-11-22T04:07:46;81.90;;;17.20;;
76725;SDS011;65651;53.154;17.916;2023-11-22T04:10:14;88.40;;;19.20;;
76725;SDS011;65651;53.154;17.916;2023-11-22T04:12:41;91.30;;;21.70;;
76725;SDS011;65651;53.154;17.916;2023-11-22T04:15:08;91.40;;;22.30;;
76725;SDS011;65651;53.154;17.916;2023-11-22T04:17:39;104.80;;;25.40;;
76725;SDS011;65651;53.154;17.916;2023-11-22T04:20:08;81.90;;;19.60;;
76725;SDS011;65651;53.154;17.916;2023-11-22T04:22:37;80.90;;;20.10;;
76725;SDS011;65651;53.154;17.916;2023-11-22T04:25:05;83.70;;;20.10;;
76725;SDS011;65651;53.154;17.916;2023-11-22T04:27:33;89.50;;;21.30;;
76725;SDS011;65651;53.154;17.916;2023-11-22T04:30:02;87.50;;;20.10;;
76725;SDS011;65651;53.154;17.916;2023-11-22T04:32:37;93.90;;;21.30;;
76725;SDS011;65651;53.154;17.916;2023-11-22T04:35:05;95.90;;;22.00;;
76725;SDS011;65651;53.154;17.916;2023-11-22T04:37:33;82.50;;;22.10;;
76725;SDS011;65651;53.154;17.916;2023-11-22T04:40:11;85.20;;;21.00;;
76725;SDS011;65651;53.154;17.916;2023-11-22T04:42:41;88.20;;;21.20;;
76725;SDS011;65651;53.154;17.916;2023-11-22T04:45:08;82.80;;;22.00;;
76725;SDS011;65651;53.154;17.916;2023-11-22T04:47:45;87.80;;;22.40;;
76725;SDS011;65651;53.154;17.916;2023-11-22T04:50:20;93.60;;;26.50;;
76725;SDS011;65651;53.154;17.916;2023-11-22T04:52:49;106.00;;;26.20;;
76725;SDS011;65651;53.154;17.916;2023-11-22T04:55:21;113.30;;;29.60;;
76725;SDS011;65651;53.154;17.916;2023-11-22T04:57:53;100.00;;;27.80;;
76725;SDS011;65651;53.154;17.916;2023-11-22T05:00:25;102.40;;;25.70;;
76725;SDS011;65651;53.154;17.916;2023-11-22T05:02:54;128.50;;;33.90;;
76725;SDS011;65651;53.154;17.916;2023-11-22T05:05:22;138.60;;;37.60;;
76725;SDS011;65651;53.154;17.916;2023-11-22T05:07:49;110.30;;;29.40;;
76725;SDS011;65651;53.154;17.916;2023-11-22T05:10:19;117.80;;;31.20;;
76725;SDS011;65651;53.154;17.916;2023-11-22T05:12:49;127.10;;;34.50;;
76725;SDS011;65651;53.154;17.916;2023-11-22T05:15:18;107.70;;;30.60;;
76725;SDS011;65651;53.154;17.916;2023-11-22T05:17:52;133.60;;;35.60;;
76725;SDS011;65651;53.154;17.916;2023-11-22T05:20:19;128.90;;;34.10;;
76725;SDS011;65651;53.154;17.916;2023-11-22T05:22:47;125.70;;;34.40;;
76725;SDS011;65651;53.154;17.916;2023-11-22T05:25:14;138.60;;;38.50;;
76725;SDS011;65651;53.154;17.916;2023-11-22T05:27:42;115.50;;;35.20;;
76725;SDS011;65651;53.154;17.916;2023-11-22T05:30:18;142.80;;;41.80;;
76725;SDS011;65651;53.154;17.916;2023-11-22T05:32:45;159.40;;;48.40;;
76725;SDS011;65651;53.154;17.916;2023-11-22T05:35:13;216.00;;;59.30;;
76725;SDS011;65651;53.154;17.916;2023-11-22T05:37:41;183.50;;;45.30;;
76725;SDS011;65651;53.154;17.916;2023-11-22T05:40:09;258.00;;;63.40;;
76725;SDS011;65651;53.154;17.916;2023-11-22T05:42:37;266.70;;;65.00;;
76725;SDS011;65651;53.154;17.916;2023-11-22T05:45:04;270.30;;;67.30;;
76725;SDS011;65651;53.154;17.916;2023-11-22T05:47:33;174.60;;;45.40;;
76725;SDS011;65651;53.154;17.916;2023-11-22T05:50:00;195.80;;;46.40;;
76725;SDS011;65651;53.154;17.916;2023-11-22T05:52:28;189.60;;;49.50;;
76725;SDS011;65651;53.154;17.916;2023-11-22T05:54:55;189.00;;;50.90;;
76725;SDS011;65651;53.154;17.916;2023-11-22T05:57:23;219.50;;;58.60;;
76725;SDS011;65651;53.154;17.916;2023-11-22T05:59:50;184.30;;;56.60;;
76725;SDS011;65651;53.154;17.916;2023-11-22T06:02:17;187.40;;;55.70;;
76725;SDS011;65651;53.154;17.916;2023-11-22T06:04:45;199.60;;;62.00;;
76725;SDS011;65651;53.154;17.916;2023-11-22T06:07:12;203.70;;;59.40;;
76725;SDS011;65651;53.154;17.916;2023-11-22T06:09:39;203.90;;;59.30;;
76725;SDS011;65651;53.154;17.916;2023-11-22T06:12:07;210.00;;;61.10;;
76725;SDS011;65651;53.154;17.916;2023-11-22T06:14:34;211.00;;;62.00;;
76725;SDS011;65651;53.154;17.916;2023-11-22T06:17:01;218.00;;;63.10;;
76725;SDS011;65651;53.154;17.916;2023-11-22T06:19:30;202.00;;;56.70;;
76725;SDS011;65651;53.154;17.916;2023-11-22T06:21:57;177.10;;;53.20;;
76725;SDS011;65651;53.154;17.916;2023-11-22T06:24:25;205.80;;;59.30;;
76725;SDS011;65651;53.154;17.916;2023-11-22T06:26:53;225.50;;;67.20;;
76725;SDS011;65651;53.154;17.916;2023-11-22T06:29:20;192.00;;;59.60;;
76725;SDS011;65651;53.154;17.916;2023-11-22T06:31:48;222.30;;;61.00;;
76725;SDS011;65651;53.154;17.916;2023-11-22T06:34:15;233.30;;;65.70;;
76725;SDS011;65651;53.154;17.916;2023-11-22T06:36:42;213.50;;;62.20;;
76725;SDS011;65651;53.154;17.916;2023-11-22T06:39:10;260.90;;;75.20;;
76725;SDS011;65651;53.154;17.916;2023-11-22T06:41:41;198.80;;;59.90;;
76725;SDS011;65651;53.154;17.916;2023-11-22T06:44:08;185.90;;;56.10;;
76725;SDS011;65651;53.154;17.916;2023-11-22T06:46:36;181.00;;;53.20;;
76725;SDS011;65651;53.154;17.916;2023-11-22T06:49:04;188.20;;;55.20;;
76725;SDS011;65651;53.154;17.916;2023-11-22T06:51:32;190.80;;;55.70;;
76725;SDS011;65651;53.154;17.916;2023-11-22T06:53:59;284.50;;;85.40;;
76725;SDS011;65651;53.154;17.916;2023-11-22T06:56:26;238.80;;;77.50;;
76725;SDS011;65651;53.154;17.916;2023-11-22T06:58:54;204.10;;;63.10;;
76725;SDS011;65651;53.154;17.916;2023-11-22T07:01:24;199.00;;;55.90;;
76725;SDS011;65651;53.154;17.916;2023-11-22T07:03:54;172.20;;;49.00;;
76725;SDS011;65651;53.154;17.916;2023-11-22T07:06:24;159.20;;;47.40;;
76725;SDS011;65651;53.154;17.916;2023-11-22T07:08:51;176.80;;;50.90;;
76725;SDS011;65651;53.154;17.916;2023-11-22T07:11:22;201.20;;;55.50;;
76725;SDS011;65651;53.154;17.916;2023-11-22T07:13:53;158.10;;;47.40;;
76725;SDS011;65651;53.154;17.916;2023-11-22T07:16:20;178.20;;;48.00;;
76725;SDS011;65651;53.154;17.916;2023-11-22T07:18:50;203.40;;;57.30;;
76725;SDS011;65651;53.154;17.916;2023-11-22T07:21:19;193.30;;;54.80;;
76725;SDS011;65651;53.154;17.916;2023-11-22T07:23:50;234.00;;;66.00;;
76725;SDS011;65651;53.154;17.916;2023-11-22T07:26:17;208.60;;;58.60;;
76725;SDS011;65651;53.154;17.916;2023-11-22T07:28:48;240.30;;;66.60;;
76725;SDS011;65651;53.154;17.916;2023-11-22T07:31:15;238.10;;;66.20;;
76725;SDS011;65651;53.154;17.916;2023-11-22T07:33:43;212.80;;;62.60;;
76725;SDS011;65651;53.154;17.916;2023-11-22T07:36:10;234.90;;;67.90;;
76725;SDS011;65651;53.154;17.916;2023-11-22T07:38:41;222.50;;;64.10;;
76725;SDS011;65651;53.154;17.916;2023-11-22T07:41:10;235.70;;;64.80;;
76725;SDS011;65651;53.154;17.916;2023-11-22T07:43:37;229.60;;;69.30;;
76725;SDS011;65651;53.154;17.916;2023-11-22T07:46:08;217.10;;;60.20;;
76725;SDS011;65651;53.154;17.916;2023-11-22T07:48:39;235.20;;;65.10;;
76725;SDS011;65651;53.154;17.916;2023-11-22T07:51:07;194.40;;;54.70;;
76725;SDS011;65651;53.154;17.916;2023-11-22T07:53:35;276.00;;;75.70;;
76725;SDS011;65651;53.154;17.916;2023-11-22T07:56:02;215.40;;;57.80;;
76725;SDS011;65651;53.154;17.916;2023-11-22T07:58:31;174.80;;;52.10;;
76725;SDS011;65651;53.154;17.916;2023-11-22T08:00:58;143.90;;;44.00;;
76725;SDS011;65651;53.154;17.916;2023-11-22T08:03:26;139.30;;;38.20;;
76725;SDS011;65651;53.154;17.916;2023-11-22T08:05:53;141.40;;;40.60;;
76725;SDS011;65651;53.154;17.916;2023-11-22T08:08:22;154.30;;;46.20;;
76725;SDS011;65651;53.154;17.916;2023-11-22T08:10:53;145.80;;;45.30;;
76725;SDS011;65651;53.154;17.916;2023-11-22T08:13:20;135.60;;;42.70;;
76725;SDS011;65651;53.154;17.916;2023-11-22T08:15:49;139.00;;;41.60;;
76725;SDS011;65651;53.154;17.916;2023-11-22T08:18:17;132.00;;;38.00;;
76725;SDS011;65651;53.154;17.916;2023-11-22T08:20:44;143.80;;;38.70;;
76725;SDS011;65651;53.154;17.916;2023-11-22T08:23:11;137.60;;;39.00;;
76725;SDS011;65651;53.154;17.916;2023-11-22T08:25:40;128.30;;;39.90;;
76725;SDS011;65651;53.154;17.916;2023-11-22T08:28:07;132.80;;;39.00;;
76725;SDS011;65651;53.154;17.916;2023-11-22T08:30:38;131.90;;;38.20;;
76725;SDS011;65651;53.154;17.916;2023-11-22T08:33:07;123.50;;;36.80;;
76725;SDS011;65651;53.154;17.916;2023-11-22T08:35:35;164.60;;;48.70;;
76725;SDS011;65651;53.154;17.916;2023-11-22T08:38:02;162.10;;;49.70;;
76725;SDS011;65651;53.154;17.916;2023-11-22T08:40:32;135.50;;;40.90;;
76725;SDS011;65651;53.154;17.916;2023-11-22T08:43:02;134.00;;;40.00;;
76725;SDS011;65651;53.154;17.916;2023-11-22T08:45:30;123.10;;;36.80;;
76725;SDS011;65651;53.154;17.916;2023-11-22T08:48:04;114.00;;;31.50;;
76725;SDS011;65651;53.154;17.916;2023-11-22T08:50:31;103.50;;;27.40;;
76725;SDS011;65651;53.154;17.916;2023-11-22T08:52:58;98.40;;;26.20;;
76725;SDS011;65651;53.154;17.916;2023-11-22T08:55:26;116.90;;;32.50;;
76725;SDS011;65651;53.154;17.916;2023-11-22T08:57:53;110.30;;;32.80;;
76725;SDS011;65651;53.154;17.916;2023-11-22T09:00:20;122.50;;;34.70;;
76725;SDS011;65651;53.154;17.916;2023-11-22T09:02:54;119.70;;;35.40;;
76725;SDS011;65651;53.154;17.916;2023-11-22T09:05:22;116.50;;;32.20;;
76725;SDS011;65651;53.154;17.916;2023-11-22T09:07:49;118.80;;;35.60;;
76725;SDS011;65651;53.154;17.916;2023-11-22T09:10:18;105.50;;;27.20;;
76725;SDS011;65651;53.154;17.916;2023-11-22T09:12:48;127.40;;;36.40;;
76725;SDS011;65651;53.154;17.916;2023-11-22T09:15:16;82.60;;;25.10;;
76725;SDS011;65651;53.154;17.916;2023-11-22T09:17:45;77.40;;;23.20;;
76725;SDS011;65651;53.154;17.916;2023-11-22T09:20:39;93.90;;;25.00;;
76725;SDS011;65651;53.154;17.916;2023-11-22T09:23:06;124.90;;;30.30;;
76725;SDS011;65651;53.154;17.916;2023-11-22T09:25:33;108.70;;;28.80;;
76725;SDS011;65651;53.154;17.916;2023-11-22T09:28:02;104.90;;;28.10;;
76725;SDS011;65651;53.154;17.916;2023-11-22T09:30:31;92.40;;;24.10;;
76725;SDS011;65651;53.154;17.916;2023-11-22T09:33:02;75.10;;;19.70;;
76725;SDS011;65651;53.154;17.916;2023-11-22T09:35:31;82.80;;;22.50;;
76725;SDS011;65651;53.154;17.916;2023-11-22T09:38:06;91.80;;;23.00;;
76725;SDS011;65651;53.154;17.916;2023-11-22T09:40:46;91.70;;;26.30;;
76725;SDS011;65651;53.154;17.916;2023-11-22T09:43:16;100.50;;;26.60;;
76725;SDS011;65651;53.154;17.916;2023-11-22T09:45:45;93.90;;;20.50;;
76725;SDS011;65651;53.154;17.916;2023-11-22T09:48:16;101.50;;;28.10;;
76725;SDS011;65651;53.154;17.916;2023-11-22T09:53:33;87.40;;;25.80;;
76725;SDS011;65651;53.154;17.916;2023-11-22T09:56:03;87.90;;;25.60;;
76725;SDS011;65651;53.154;17.916;2023-11-22T09:58:35;60.50;;;17.00;;
76725;SDS011;65651;53.154;17.916;2023-11-22T10:01:07;87.30;;;20.60;;
76725;SDS011;65651;53.154;17.916;2023-11-22T10:03:35;85.90;;;23.00;;
76725;SDS011;65651;53.154;17.916;2023-11-22T10:06:03;98.70;;;25.60;;
76725;SDS011;65651;53.154;17.916;2023-11-22T10:08:31;98.90;;;24.60;;
76725;SDS011;65651;53.154;17.916;2023-11-22T10:10:59;88.60;;;25.50;;
76725;SDS011;65651;53.154;17.916;2023-11-22T10:13:27;83.40;;;23.70;;
76725;SDS011;65651;53.154;17.916;2023-11-22T10:15:54;62.30;;;18.40;;
76725;SDS011;65651;53.154;17.916;2023-11-22T10:18:21;77.20;;;24.50;;
76725;SDS011;65651;53.154;17.916;2023-11-22T10:20:49;57.30;;;17.30;;
76725;SDS011;65651;53.154;17.916;2023-11-22T10:23:17;83.40;;;22.90;;
76725;SDS011;65651;53.154;17.916;2023-11-22T10:25:47;96.10;;;25.80;;
76725;SDS011;65651;53.154;17.916;2023-11-22T10:28:19;84.60;;;23.50;;
76725;SDS011;65651;53.154;17.916;2023-11-22T10:30:50;97.40;;;27.40;;
76725;SDS011;65651;53.154;17.916;2023-11-22T10:33:18;84.70;;;24.20;;
76725;SDS011;65651;53.154;17.916;2023-11-22T10:35:50;79.00;;;23.40;;
76725;SDS011;65651;53.154;17.916;2023-11-22T10:38:18;89.80;;;28.50;;
76725;SDS011;65651;53.154;17.916;2023-11-22T10:40:46;80.00;;;24.90;;
76725;SDS011;65651;53.154;17.916;2023-11-22T10:43:15;84.50;;;25.40;;
76725;SDS011;65651;53.154;17.916;2023-11-22T10:45:44;98.70;;;28.00;;
76725;SDS011;65651;53.154;17.916;2023-11-22T10:48:15;106.90;;;28.70;;
76725;SDS011;65651;53.154;17.916;2023-11-22T10:50:46;47.30;;;16.10;;
76725;SDS011;65651;53.154;17.916;2023-11-22T10:53:20;80.20;;;24.80;;
76725;SDS011;65651;53.154;17.916;2023-11-22T10:55:53;86.30;;;25.60;;
76725;SDS011;65651;53.154;17.916;2023-11-22T10:58:26;76.80;;;25.20;;
76725;SDS011;65651;53.154;17.916;2023-11-22T11:00:57;71.90;;;23.70;;
76725;SDS011;65651;53.154;17.916;2023-11-22T11:03:27;71.90;;;21.60;;
76725;SDS011;65651;53.154;17.916;2023-11-22T11:05:58;75.90;;;21.50;;
76725;SDS011;65651;53.154;17.916;2023-11-22T11:08:27;63.40;;;18.80;;
76725;SDS011;65651;53.154;17.916;2023-11-22T11:10:55;55.80;;;18.80;;
76725;SDS011;65651;53.154;17.916;2023-11-22T11:13:27;132.80;;;50.30;;
76725;SDS011;65651;53.154;17.916;2023-11-22T11:15:56;84.70;;;30.00;;
76725;SDS011;65651;53.154;17.916;2023-11-22T11:18:25;88.00;;;26.30;;
76725;SDS011;65651;53.154;17.916;2023-11-22T11:20:55;124.20;;;35.40;;
76725;SDS011;65651;53.154;17.916;2023-11-22T11:23:26;115.60;;;29.50;;
76725;SDS011;65651;53.154;17.916;2023-11-22T11:25:58;43.20;;;13.90;;
76725;SDS011;65651;53.154;17.916;2023-11-22T11:28:41;112.80;;;29.50;;
76725;SDS011;65651;53.154;17.916;2023-11-22T11:31:11;95.80;;;26.80;;
76725;SDS011;65651;53.154;17.916;2023-11-22T11:34:11;102.20;;;31.40;;
76725;SDS011;65651;53.154;17.916;2023-11-22T11:36:33;36.80;;;12.90;;
76725;SDS011;65651;53.154;17.916;2023-11-22T11:39:06;125.70;;;27.80;;
76725;SDS011;65651;53.154;17.916;2023-11-22T11:41:41;119.10;;;31.60;;
76725;SDS011;65651;53.154;17.916;2023-11-22T11:44:09;101.40;;;32.30;;
76725;SDS011;65651;53.154;17.916;2023-11-22T11:46:38;122.70;;;38.10;;
76725;SDS011;65651;53.154;17.916;2023-11-22T11:49:13;47.60;;;16.70;;
76725;SDS011;65651;53.154;17.916;2023-11-22T11:51:41;90.10;;;33.80;;
76725;SDS011;65651;53.154;17.916;2023-11-22T11:54:12;96.50;;;34.20;;
76725;SDS011;65651;53.154;17.916;2023-11-22T11:56:40;83.50;;;33.00;;
76725;SDS011;65651;53.154;17.916;2023-11-22T11:59:07;116.00;;;43.80;;
76725;SDS011;65651;53.154;17.916;2023-11-22T12:01:34;105.40;;;36.40;;
76725;SDS011;65651;53.154;17.916;2023-11-22T12:04:02;95.90;;;31.70;;
76725;SDS011;65651;53.154;17.916;2023-11-22T12:06:30;80.90;;;28.50;;
76725;SDS011;65651;53.154;17.916;2023-11-22T12:09:03;105.70;;;35.40;;
76725;SDS011;65651;53.154;17.916;2023-11-22T12:11:30;111.20;;;39.20;;
76725;SDS011;65651;53.154;17.916;2023-11-22T12:13:57;103.50;;;34.70;;
76725;SDS011;65651;53.154;17.916;2023-11-22T12:16:25;58.20;;;22.80;;
76725;SDS011;65651;53.154;17.916;2023-11-22T12:18:54;42.60;;;17.60;;
76725;SDS011;65651;53.154;17.916;2023-11-22T12:21:23;130.60;;;36.50;;
76725;SDS011;65651;53.154;17.916;2023-11-22T12:24:08;140.90;;;37.40;;
76725;SDS011;65651;53.154;17.916;2023-11-22T12:26:45;44.40;;;17.20;;
76725;SDS011;65651;53.154;17.916;2023-11-22T12:29:17;30.40;;;12.00;;
76725;SDS011;65651;53.154;17.916;2023-11-22T12:31:50;55.60;;;26.00;;
76725;SDS011;65651;53.154;17.916;2023-11-22T12:34:22;46.70;;;18.40;;
76725;SDS011;65651;53.154;17.916;2023-11-22T12:36:52;108.00;;;35.60;;
76725;SDS011;65651;53.154;17.916;2023-11-22T12:39:25;110.00;;;34.10;;
76725;SDS011;65651;53.154;17.916;2023-11-22T12:41:53;86.20;;;39.30;;
76725;SDS011;65651;53.154;17.916;2023-11-22T12:44:24;145.70;;;58.30;;
76725;SDS011;65651;53.154;17.916;2023-11-22T12:46:52;106.10;;;33.60;;
76725;SDS011;65651;53.154;17.916;2023-11-22T12:49:34;60.10;;;22.90;;
76725;SDS011;65651;53.154;17.916;2023-11-22T12:52:13;71.10;;;20.20;;
76725;SDS011;65651;53.154;17.916;2023-11-22T12:54:42;107.30;;;26.20;;
76725;SDS011;65651;53.154;17.916;2023-11-22T12:57:14;84.40;;;23.80;;
76725;SDS011;65651;53.154;17.916;2023-11-22T12:59:44;103.80;;;28.50;;
76725;SDS011;65651;53.154;17.916;2023-11-22T13:02:19;128.20;;;33.30;;
76725;SDS011;65651;53.154;17.916;2023-11-22T13:04:56;75.80;;;23.20;;
76725;SDS011;65651;53.154;17.916;2023-11-22T13:07:26;88.10;;;29.90;;
76725;SDS011;65651;53.154;17.916;2023-11-22T13:09:54;83.30;;;26.10;;
76725;SDS011;65651;53.154;17.916;2023-11-22T13:12:21;59.60;;;20.70;;
76725;SDS011;65651;53.154;17.916;2023-11-22T13:14:52;79.40;;;27.10;;
76725;SDS011;65651;53.154;17.916;2023-11-22T13:17:22;118.80;;;37.30;;
76725;SDS011;65651;53.154;17.916;2023-11-22T13:19:49;74.50;;;24.40;;
76725;SDS011;65651;53.154;17.916;2023-11-22T13:22:17;47.20;;;18.20;;
76725;SDS011;65651;53.154;17.916;2023-11-22T13:24:46;66.50;;;23.50;;
76725;SDS011;65651;53.154;17.916;2023-11-22T13:27:15;149.20;;;38.90;;
76725;SDS011;65651;53.154;17.916;2023-11-22T13:29:45;141.90;;;44.40;;
76725;SDS011;65651;53.154;17.916;2023-11-22T13:32:13;103.80;;;32.80;;
76725;SDS011;65651;53.154;17.916;2023-11-22T13:34:40;111.10;;;34.40;;
76725;SDS011;65651;53.154;17.916;2023-11-22T13:37:07;90.90;;;29.50;;
76725;SDS011;65651;53.154;17.916;2023-11-22T13:39:35;66.40;;;24.40;;
76725;SDS011;65651;53.154;17.916;2023-11-22T13:42:02;68.30;;;23.80;;
76725;SDS011;65651;53.154;17.916;2023-11-22T13:44:33;85.40;;;29.30;;
76725;SDS011;65651;53.154;17.916;2023-11-22T13:47:03;86.90;;;29.30;;
76725;SDS011;65651;53.154;17.916;2023-11-22T13:49:34;59.70;;;23.20;;
76725;SDS011;65651;53.154;17.916;2023-11-22T13:52:02;54.90;;;21.70;;
76725;SDS011;65651;53.154;17.916;2023-11-22T13:54:40;40.90;;;17.10;;
76725;SDS011;65651;53.154;17.916;2023-11-22T13:57:08;31.10;;;13.60;;
76725;SDS011;65651;53.154;17.916;2023-11-22T13:59:35;47.40;;;20.00;;
76725;SDS011;65651;53.154;17.916;2023-11-22T14:02:02;27.90;;;12.90;;
76725;SDS011;65651;53.154;17.916;2023-11-22T14:04:29;28.00;;;10.60;;
76725;SDS011;65651;53.154;17.916;2023-11-22T14:07:35;41.90;;;16.60;;
76725;SDS011;65651;53.154;17.916;2023-11-22T14:10:18;29.50;;;10.50;;
76725;SDS011;65651;53.154;17.916;2023-11-22T14:12:45;69.60;;;26.30;;
76725;SDS011;65651;53.154;17.916;2023-11-22T14:15:15;50.00;;;19.50;;
76725;SDS011;65651;53.154;17.916;2023-11-22T14:17:52;50.30;;;18.30;;
76725;SDS011;65651;53.154;17.916;2023-11-22T14:20:19;40.80;;;15.90;;
76725;SDS011;65651;53.154;17.916;2023-11-22T14:22:51;40.00;;;16.30;;
76725;SDS011;65651;53.154;17.916;2023-11-22T14:25:19;38.20;;;16.70;;
76725;SDS011;65651;53.154;17.916;2023-11-22T14:27:47;42.90;;;17.90;;
76725;SDS011;65651;53.154;17.916;2023-11-22T14:30:19;31.80;;;11.20;;
76725;SDS011;65651;53.154;17.916;2023-11-22T14:32:57;38.20;;;15.80;;
76725;SDS011;65651;53.154;17.916;2023-11-22T14:35:26;50.70;;;18.50;;
76725;SDS011;65651;53.154;17.916;2023-11-22T14:37:57;85.10;;;31.00;;
76725;SDS011;65651;53.154;17.916;2023-11-22T14:40:27;70.60;;;25.70;;